sensor_id;sensor_type;location;lat;lon;timestamp;P1;durP1;ratioP1;P2;durP2;ratioP2
4174;SDS011;2101;48.290;14.382;2022-08-11T00:01:19;15.00;;;1.67;;
4174;SDS011;2101;48.290;14.382;2022-08-11T00:03:58;15.67;;;1.73;;
4174;SDS011;2101;48.290;14.382;2022-08-11T00:06:35;17.13;;;1.93;;
4174;SDS011;2101;48.290;14.382;2022-08-11T00:09:03;16.43;;;1.80;;
4174;SDS011;2101;48.290;14.382;2022-08-11T00:14:02;16.00;;;2.10;;
4174;SDS011;2101;48.290;14.382;2022-08-11T00:16:28;18.83;;;2.00;;
4174;SDS011;2101;48.290;14.382;2022-08-11T00:18:55;16.87;;;1.87;;
4174;SDS011;2101;48.290;14.382;2022-08-11T00:21:22;15.73;;;2.13;;
4174;SDS011;2101;48.290;14.382;2022-08-11T00:23:53;15.57;;;1.70;;
4174;SDS011;2101;48.290;14.382;2022-08-11T00:26:20;17.80;;;1.97;;
4174;SDS011;2101;48.290;14.382;2022-08-11T00:28:47;16.50;;;2.17;;
4174;SDS011;2101;48.290;14.382;2022-08-11T00:31:23;21.47;;;2.10;;
4174;SDS011;2101;48.290;14.382;2022-08-11T00:33:51;15.30;;;1.93;;
4174;SDS011;2101;48.290;14.382;2022-08-11T00:36:18;18.80;;;2.10;;
4174;SDS011;2101;48.290;14.382;2022-08-11T00:38:46;15.30;;;1.70;;
4174;SDS011;2101;48.290;14.382;2022-08-11T00:41:28;15.17;;;1.70;;
4174;SDS011;2101;48.290;14.382;2022-08-11T00:44:17;19.20;;;1.87;;
4174;SDS011;2101;48.290;14.382;2022-08-11T01:15:36;15.40;;;1.70;;
4174;SDS011;2101;48.290;14.382;2022-08-11T01:28:55;14.77;;;1.73;;
4174;SDS011;2101;48.290;14.382;2022-08-11T01:39:13;18.50;;;2.00;;
4174;SDS011;2101;48.290;14.382;2022-08-11T01:42:04;15.07;;;1.70;;
4174;SDS011;2101;48.290;14.382;2022-08-11T01:45:03;16.73;;;2.00;;
4174;SDS011;2101;48.290;14.382;2022-08-11T01:55:20;20.73;;;2.23;;
4174;SDS011;2101;48.290;14.382;2022-08-11T02:00:21;18.60;;;2.10;;
4174;SDS011;2101;48.290;14.382;2022-08-11T02:05:53;17.80;;;1.87;;
4174;SDS011;2101;48.290;14.382;2022-08-11T02:11:26;16.13;;;1.90;;
4174;SDS011;2101;48.290;14.382;2022-08-11T02:16:28;17.63;;;1.80;;
4174;SDS011;2101;48.290;14.382;2022-08-11T02:25:05;19.17;;;2.33;;
4174;SDS011;2101;48.290;14.382;2022-08-11T02:27:42;15.80;;;1.90;;
4174;SDS011;2101;48.290;14.382;2022-08-11T02:30:13;16.60;;;2.30;;
4174;SDS011;2101;48.290;14.382;2022-08-11T02:35:37;15.30;;;1.80;;
4174;SDS011;2101;48.290;14.382;2022-08-11T02:38:17;16.03;;;1.87;;
4174;SDS011;2101;48.290;14.382;2022-08-11T02:41:04;17.20;;;1.83;;
4174;SDS011;2101;48.290;14.382;2022-08-11T02:44:02;16.50;;;1.60;;
4174;SDS011;2101;48.290;14.382;2022-08-11T02:46:31;16.17;;;2.37;;
4174;SDS011;2101;48.290;14.382;2022-08-11T02:54:31;16.20;;;2.27;;
4174;SDS011;2101;48.290;14.382;2022-08-11T02:59:52;19.73;;;2.17;;
4174;SDS011;2101;48.290;14.382;2022-08-11T03:02:23;19.07;;;2.00;;
4174;SDS011;2101;48.290;14.382;2022-08-11T03:05:06;18.50;;;2.50;;
4174;SDS011;2101;48.290;14.382;2022-08-11T03:18:49;16.80;;;1.90;;
4174;SDS011;2101;48.290;14.382;2022-08-11T03:21:22;15.90;;;2.10;;
4174;SDS011;2101;48.290;14.382;2022-08-11T03:23:52;15.57;;;2.00;;
4174;SDS011;2101;48.290;14.382;2022-08-11T03:26:31;16.57;;;2.50;;
4174;SDS011;2101;48.290;14.382;2022-08-11T03:31:48;17.60;;;1.80;;
4174;SDS011;2101;48.290;14.382;2022-08-11T03:34:26;15.53;;;1.83;;
4174;SDS011;2101;48.290;14.382;2022-08-11T03:45:05;16.90;;;2.33;;
4174;SDS011;2101;48.290;14.382;2022-08-11T04:00:43;16.10;;;1.90;;
4174;SDS011;2101;48.290;14.382;2022-08-11T04:03:16;16.37;;;1.83;;
4174;SDS011;2101;48.290;14.382;2022-08-11T04:11:12;16.93;;;2.03;;
4174;SDS011;2101;48.290;14.382;2022-08-11T04:17:00;24.27;;;2.13;;
4174;SDS011;2101;48.290;14.382;2022-08-11T04:30:02;20.60;;;1.70;;
4174;SDS011;2101;48.290;14.382;2022-08-11T04:37:35;28.83;;;2.20;;
4174;SDS011;2101;48.290;14.382;2022-08-11T05:00:24;20.50;;;1.90;;
4174;SDS011;2101;48.290;14.382;2022-08-11T05:13:49;15.33;;;1.97;;
4174;SDS011;2101;48.290;14.382;2022-08-11T05:16:50;16.70;;;2.10;;
4174;SDS011;2101;48.290;14.382;2022-08-11T05:19:36;14.63;;;1.60;;
4174;SDS011;2101;48.290;14.382;2022-08-11T05:22:38;14.73;;;1.53;;
4174;SDS011;2101;48.290;14.382;2022-08-11T05:25:28;15.30;;;1.80;;
4174;SDS011;2101;48.290;14.382;2022-08-11T05:28:32;14.50;;;1.40;;
4174;SDS011;2101;48.290;14.382;2022-08-11T05:31:19;16.87;;;1.90;;
4174;SDS011;2101;48.290;14.382;2022-08-11T05:34:08;14.00;;;1.37;;
4174;SDS011;2101;48.290;14.382;2022-08-11T05:36:59;14.77;;;1.53;;
4174;SDS011;2101;48.290;14.382;2022-08-11T05:39:29;15.93;;;1.73;;
4174;SDS011;2101;48.290;14.382;2022-08-11T05:42:15;15.60;;;1.70;;
4174;SDS011;2101;48.290;14.382;2022-08-11T05:45:03;14.90;;;1.70;;
4174;SDS011;2101;48.290;14.382;2022-08-11T05:47:48;16.70;;;1.70;;
4174;SDS011;2101;48.290;14.382;2022-08-11T05:50:33;16.37;;;2.10;;
4174;SDS011;2101;48.290;14.382;2022-08-11T05:53:19;16.23;;;1.83;;
4174;SDS011;2101;48.290;14.382;2022-08-11T05:56:04;15.33;;;2.07;;
4174;SDS011;2101;48.290;14.382;2022-08-11T05:58:49;16.03;;;2.10;;
4174;SDS011;2101;48.290;14.382;2022-08-11T06:03:52;14.70;;;1.70;;
4174;SDS011;2101;48.290;14.382;2022-08-11T06:06:38;14.73;;;1.70;;
4174;SDS011;2101;48.290;14.382;2022-08-11T06:09:05;14.20;;;1.70;;
4174;SDS011;2101;48.290;14.382;2022-08-11T06:11:37;14.70;;;1.67;;
4174;SDS011;2101;48.290;14.382;2022-08-11T06:14:05;17.43;;;2.00;;
4174;SDS011;2101;48.290;14.382;2022-08-11T06:16:31;14.10;;;1.70;;
4174;SDS011;2101;48.290;14.382;2022-08-11T06:18:58;32.63;;;2.17;;
4174;SDS011;2101;48.290;14.382;2022-08-11T06:21:24;15.57;;;1.80;;
4174;SDS011;2101;48.290;14.382;2022-08-11T06:23:51;13.83;;;1.80;;
4174;SDS011;2101;48.290;14.382;2022-08-11T06:26:18;14.77;;;1.47;;
4174;SDS011;2101;48.290;14.382;2022-08-11T06:28:44;15.03;;;2.00;;
4174;SDS011;2101;48.290;14.382;2022-08-11T06:31:16;16.20;;;1.53;;
4174;SDS011;2101;48.290;14.382;2022-08-11T06:36:33;13.73;;;1.60;;
4174;SDS011;2101;48.290;14.382;2022-08-11T06:41:47;14.83;;;1.70;;
4174;SDS011;2101;48.290;14.382;2022-08-11T06:44:15;13.00;;;1.37;;
4174;SDS011;2101;48.290;14.382;2022-08-11T06:46:45;14.33;;;1.93;;
4174;SDS011;2101;48.290;14.382;2022-08-11T06:49:13;14.63;;;1.70;;
4174;SDS011;2101;48.290;14.382;2022-08-11T06:52:05;14.47;;;1.87;;
4174;SDS011;2101;48.290;14.382;2022-08-11T06:54:32;14.98;;;2.03;;
4174;SDS011;2101;48.290;14.382;2022-08-11T06:56:59;14.13;;;1.73;;
4174;SDS011;2101;48.290;14.382;2022-08-11T06:59:46;13.90;;;1.70;;
4174;SDS011;2101;48.290;14.382;2022-08-11T07:02:33;13.52;;;1.73;;
4174;SDS011;2101;48.290;14.382;2022-08-11T07:13:53;16.27;;;1.70;;
4174;SDS011;2101;48.290;14.382;2022-08-11T07:16:40;16.40;;;1.77;;
4174;SDS011;2101;48.290;14.382;2022-08-11T07:19:07;14.40;;;1.70;;
4174;SDS011;2101;48.290;14.382;2022-08-11T07:21:52;14.00;;;1.60;;
4174;SDS011;2101;48.290;14.382;2022-08-11T07:24:41;15.45;;;2.20;;
4174;SDS011;2101;48.290;14.382;2022-08-11T07:27:29;16.15;;;1.77;;
4174;SDS011;2101;48.290;14.382;2022-08-11T07:30:15;15.93;;;1.73;;
4174;SDS011;2101;48.290;14.382;2022-08-11T07:32:55;12.60;;;1.40;;
4174;SDS011;2101;48.290;14.382;2022-08-11T07:38:24;18.42;;;1.63;;
4174;SDS011;2101;48.290;14.382;2022-08-11T07:41:08;22.75;;;1.95;;
4174;SDS011;2101;48.290;14.382;2022-08-11T07:43:34;13.55;;;1.60;;
4174;SDS011;2101;48.290;14.382;2022-08-11T07:46:01;12.60;;;1.50;;
4174;SDS011;2101;48.290;14.382;2022-08-11T07:48:46;14.23;;;2.05;;
4174;SDS011;2101;48.290;14.382;2022-08-11T07:51:31;13.02;;;1.48;;
4174;SDS011;2101;48.290;14.382;2022-08-11T07:54:16;12.60;;;1.55;;
4174;SDS011;2101;48.290;14.382;2022-08-11T07:56:42;13.15;;;1.60;;
4174;SDS011;2101;48.290;14.382;2022-08-11T07:59:10;13.77;;;1.40;;
4174;SDS011;2101;48.290;14.382;2022-08-11T08:01:55;13.05;;;1.73;;
4174;SDS011;2101;48.290;14.382;2022-08-11T08:04:39;13.52;;;1.40;;
4174;SDS011;2101;48.290;14.382;2022-08-11T08:07:24;12.88;;;1.50;;
4174;SDS011;2101;48.290;14.382;2022-08-11T08:10:09;12.82;;;1.55;;
4174;SDS011;2101;48.290;14.382;2022-08-11T08:12:54;15.25;;;1.35;;
4174;SDS011;2101;48.290;14.382;2022-08-11T08:15:39;14.07;;;1.55;;
4174;SDS011;2101;48.290;14.382;2022-08-11T08:18:27;13.25;;;1.42;;
4174;SDS011;2101;48.290;14.382;2022-08-11T08:20:54;14.18;;;1.95;;
4174;SDS011;2101;48.290;14.382;2022-08-11T08:23:35;12.80;;;1.42;;
4174;SDS011;2101;48.290;14.382;2022-08-11T08:26:03;14.75;;;1.70;;
4174;SDS011;2101;48.290;14.382;2022-08-11T08:28:51;18.15;;;1.60;;
4174;SDS011;2101;48.290;14.382;2022-08-11T08:31:17;13.90;;;1.80;;
4174;SDS011;2101;48.290;14.382;2022-08-11T08:33:44;15.55;;;1.52;;
4174;SDS011;2101;48.290;14.382;2022-08-11T08:36:10;16.77;;;1.40;;
4174;SDS011;2101;48.290;14.382;2022-08-11T08:38:41;13.40;;;1.63;;
4174;SDS011;2101;48.290;14.382;2022-08-11T08:41:10;13.93;;;1.42;;
4174;SDS011;2101;48.290;14.382;2022-08-11T08:43:39;14.43;;;1.60;;
4174;SDS011;2101;48.290;14.382;2022-08-11T08:46:08;13.88;;;1.92;;
4174;SDS011;2101;48.290;14.382;2022-08-11T08:48:35;18.02;;;1.77;;
4174;SDS011;2101;48.290;14.382;2022-08-11T08:51:04;13.27;;;1.52;;
4174;SDS011;2101;48.290;14.382;2022-08-11T08:53:51;14.80;;;1.58;;
4174;SDS011;2101;48.290;14.382;2022-08-11T08:56:26;13.20;;;1.50;;
4174;SDS011;2101;48.290;14.382;2022-08-11T08:58:53;16.60;;;1.50;;
4174;SDS011;2101;48.290;14.382;2022-08-11T09:01:21;15.63;;;2.00;;
4174;SDS011;2101;48.290;14.382;2022-08-11T09:03:49;16.83;;;1.47;;
4174;SDS011;2101;48.290;14.382;2022-08-11T09:06:16;18.67;;;1.70;;
4174;SDS011;2101;48.290;14.382;2022-08-11T09:08:44;15.77;;;1.60;;
4174;SDS011;2101;48.290;14.382;2022-08-11T09:11:11;14.87;;;2.00;;
4174;SDS011;2101;48.290;14.382;2022-08-11T09:13:57;16.00;;;1.43;;
4174;SDS011;2101;48.290;14.382;2022-08-11T09:16:24;15.80;;;1.80;;
4174;SDS011;2101;48.290;14.382;2022-08-11T09:18:51;15.23;;;1.50;;
4174;SDS011;2101;48.290;14.382;2022-08-11T09:21:19;14.60;;;1.40;;
4174;SDS011;2101;48.290;14.382;2022-08-11T09:23:47;18.00;;;1.80;;
4174;SDS011;2101;48.290;14.382;2022-08-11T09:26:34;15.13;;;1.67;;
4174;SDS011;2101;48.290;14.382;2022-08-11T09:29:26;15.07;;;1.60;;
4174;SDS011;2101;48.290;14.382;2022-08-11T09:31:53;14.30;;;1.47;;
4174;SDS011;2101;48.290;14.382;2022-08-11T09:34:19;17.27;;;1.60;;
4174;SDS011;2101;48.290;14.382;2022-08-11T09:36:50;17.43;;;1.90;;
4174;SDS011;2101;48.290;14.382;2022-08-11T09:39:36;15.50;;;2.10;;
4174;SDS011;2101;48.290;14.382;2022-08-11T09:42:21;14.20;;;1.40;;
4174;SDS011;2101;48.290;14.382;2022-08-11T09:45:09;17.13;;;1.77;;
4174;SDS011;2101;48.290;14.382;2022-08-11T09:47:36;14.80;;;1.40;;
4174;SDS011;2101;48.290;14.382;2022-08-11T09:50:03;15.90;;;1.57;;
4174;SDS011;2101;48.290;14.382;2022-08-11T09:52:31;14.80;;;1.47;;
4174;SDS011;2101;48.290;14.382;2022-08-11T09:54:59;14.60;;;1.77;;
4174;SDS011;2101;48.290;14.382;2022-08-11T09:57:26;17.00;;;1.53;;
4174;SDS011;2101;48.290;14.382;2022-08-11T10:00:27;14.87;;;1.60;;
4174;SDS011;2101;48.290;14.382;2022-08-11T10:02:54;14.23;;;1.40;;
4174;SDS011;2101;48.290;14.382;2022-08-11T10:05:20;14.00;;;1.30;;
4174;SDS011;2101;48.290;14.382;2022-08-11T10:08:06;15.40;;;1.40;;
4174;SDS011;2101;48.290;14.382;2022-08-11T10:10:34;18.70;;;1.93;;
4174;SDS011;2101;48.290;14.382;2022-08-11T10:13:02;15.93;;;1.50;;
4174;SDS011;2101;48.290;14.382;2022-08-11T10:15:30;13.87;;;1.53;;
4174;SDS011;2101;48.290;14.382;2022-08-11T10:18:05;13.70;;;1.37;;
4174;SDS011;2101;48.290;14.382;2022-08-11T10:20:52;14.00;;;1.37;;
4174;SDS011;2101;48.290;14.382;2022-08-11T10:23:20;14.07;;;1.40;;
4174;SDS011;2101;48.290;14.382;2022-08-11T10:26:05;16.70;;;1.57;;
4174;SDS011;2101;48.290;14.382;2022-08-11T10:28:50;13.80;;;1.30;;
4174;SDS011;2101;48.290;14.382;2022-08-11T10:31:18;16.67;;;1.90;;
4174;SDS011;2101;48.290;14.382;2022-08-11T10:34:03;13.47;;;1.20;;
4174;SDS011;2101;48.290;14.382;2022-08-11T10:36:31;17.27;;;1.30;;
4174;SDS011;2101;48.290;14.382;2022-08-11T10:38:58;20.80;;;1.30;;
4174;SDS011;2101;48.290;14.382;2022-08-11T10:41:25;13.47;;;1.00;;
4174;SDS011;2101;48.290;14.382;2022-08-11T10:44:11;15.33;;;1.27;;
4174;SDS011;2101;48.290;14.382;2022-08-11T10:46:38;14.80;;;1.27;;
4174;SDS011;2101;48.290;14.382;2022-08-11T10:49:24;14.33;;;1.20;;
4174;SDS011;2101;48.290;14.382;2022-08-11T10:51:51;14.87;;;1.20;;
4174;SDS011;2101;48.290;14.382;2022-08-11T10:54:36;17.40;;;1.60;;
4174;SDS011;2101;48.290;14.382;2022-08-11T10:57:23;14.63;;;1.17;;
4174;SDS011;2101;48.290;14.382;2022-08-11T11:00:11;13.13;;;0.90;;
4174;SDS011;2101;48.290;14.382;2022-08-11T11:02:40;13.50;;;1.30;;
4174;SDS011;2101;48.290;14.382;2022-08-11T11:10:48;14.23;;;1.50;;
4174;SDS011;2101;48.290;14.382;2022-08-11T11:13:15;13.10;;;1.00;;
4174;SDS011;2101;48.290;14.382;2022-08-11T11:15:59;13.50;;;1.00;;
4174;SDS011;2101;48.290;14.382;2022-08-11T11:18:44;14.97;;;1.30;;
4174;SDS011;2101;48.290;14.382;2022-08-11T11:26:56;13.17;;;1.00;;
4174;SDS011;2101;48.290;14.382;2022-08-11T11:30:08;12.97;;;1.00;;
4174;SDS011;2101;48.290;14.382;2022-08-11T11:37:28;13.30;;;0.80;;
4174;SDS011;2101;48.290;14.382;2022-08-11T11:39:55;13.50;;;1.20;;
4174;SDS011;2101;48.290;14.382;2022-08-11T11:42:21;13.20;;;1.00;;
4174;SDS011;2101;48.290;14.382;2022-08-11T11:44:50;12.97;;;0.90;;
4174;SDS011;2101;48.290;14.382;2022-08-11T11:47:16;13.73;;;1.00;;
4174;SDS011;2101;48.290;14.382;2022-08-11T11:49:47;13.27;;;1.00;;
4174;SDS011;2101;48.290;14.382;2022-08-11T11:52:18;13.50;;;1.03;;
4174;SDS011;2101;48.290;14.382;2022-08-11T11:55:02;13.70;;;1.00;;
4174;SDS011;2101;48.290;14.382;2022-08-11T11:57:29;13.97;;;1.07;;
4174;SDS011;2101;48.290;14.382;2022-08-11T12:00:14;14.50;;;0.97;;
4174;SDS011;2101;48.290;14.382;2022-08-11T12:02:59;13.93;;;1.17;;
4174;SDS011;2101;48.290;14.382;2022-08-11T12:05:27;13.17;;;1.03;;
4174;SDS011;2101;48.290;14.382;2022-08-11T12:07:54;17.10;;;1.37;;
4174;SDS011;2101;48.290;14.382;2022-08-11T12:10:43;14.27;;;1.30;;
4174;SDS011;2101;48.290;14.382;2022-08-11T12:13:11;13.00;;;1.00;;
4174;SDS011;2101;48.290;14.382;2022-08-11T12:15:56;13.80;;;1.37;;
4174;SDS011;2101;48.290;14.382;2022-08-11T12:18:29;14.20;;;1.30;;
4174;SDS011;2101;48.290;14.382;2022-08-11T12:20:56;14.27;;;1.07;;
4174;SDS011;2101;48.290;14.382;2022-08-11T12:23:23;13.20;;;1.00;;
4174;SDS011;2101;48.290;14.382;2022-08-11T12:26:08;13.50;;;1.03;;
4174;SDS011;2101;48.290;14.382;2022-08-11T12:28:53;13.80;;;1.20;;
4174;SDS011;2101;48.290;14.382;2022-08-11T12:31:22;13.37;;;0.93;;
4174;SDS011;2101;48.290;14.382;2022-08-11T12:33:49;12.77;;;0.90;;
4174;SDS011;2101;48.290;14.382;2022-08-11T12:36:16;13.07;;;1.00;;
4174;SDS011;2101;48.290;14.382;2022-08-11T12:38:44;13.73;;;1.20;;
4174;SDS011;2101;48.290;14.382;2022-08-11T12:41:12;15.20;;;1.30;;
4174;SDS011;2101;48.290;14.382;2022-08-11T12:43:58;15.50;;;1.10;;
4174;SDS011;2101;48.290;14.382;2022-08-11T12:46:44;16.33;;;1.67;;
4174;SDS011;2101;48.290;14.382;2022-08-11T12:49:18;13.60;;;1.13;;
4174;SDS011;2101;48.290;14.382;2022-08-11T12:52:07;13.60;;;1.00;;
4174;SDS011;2101;48.290;14.382;2022-08-11T12:54:48;12.90;;;0.90;;
4174;SDS011;2101;48.290;14.382;2022-08-11T13:00:19;12.90;;;0.93;;
4174;SDS011;2101;48.290;14.382;2022-08-11T13:03:06;13.03;;;0.93;;
4174;SDS011;2101;48.290;14.382;2022-08-11T13:05:53;13.20;;;0.97;;
4174;SDS011;2101;48.290;14.382;2022-08-11T13:08:21;12.77;;;0.90;;
4174;SDS011;2101;48.290;14.382;2022-08-11T13:10:49;16.07;;;1.20;;
4174;SDS011;2101;48.290;14.382;2022-08-11T13:13:34;13.17;;;0.90;;
4174;SDS011;2101;48.290;14.382;2022-08-11T13:16:01;14.10;;;1.10;;
4174;SDS011;2101;48.290;14.382;2022-08-11T13:18:27;13.10;;;1.10;;
4174;SDS011;2101;48.290;14.382;2022-08-11T13:20:54;14.67;;;1.23;;
4174;SDS011;2101;48.290;14.382;2022-08-11T13:23:21;14.13;;;1.20;;
4174;SDS011;2101;48.290;14.382;2022-08-11T13:25:47;13.87;;;1.10;;
4174;SDS011;2101;48.290;14.382;2022-08-11T13:28:14;14.97;;;1.40;;
4174;SDS011;2101;48.290;14.382;2022-08-11T13:30:41;15.40;;;1.10;;
4174;SDS011;2101;48.290;14.382;2022-08-11T13:33:26;12.87;;;0.80;;
4174;SDS011;2101;48.290;14.382;2022-08-11T13:35:53;12.97;;;1.00;;
4174;SDS011;2101;48.290;14.382;2022-08-11T13:38:21;17.67;;;1.27;;
4174;SDS011;2101;48.290;14.382;2022-08-11T13:40:48;13.10;;;0.93;;
4174;SDS011;2101;48.290;14.382;2022-08-11T13:43:14;13.13;;;1.00;;
4174;SDS011;2101;48.290;14.382;2022-08-11T13:45:41;17.13;;;1.10;;
4174;SDS011;2101;48.290;14.382;2022-08-11T13:48:08;13.60;;;1.13;;
4174;SDS011;2101;48.290;14.382;2022-08-11T13:50:35;13.50;;;1.13;;
4174;SDS011;2101;48.290;14.382;2022-08-11T13:53:23;18.80;;;1.07;;
4174;SDS011;2101;48.290;14.382;2022-08-11T13:55:50;14.37;;;1.10;;
4174;SDS011;2101;48.290;14.382;2022-08-11T13:58:16;13.80;;;1.03;;
4174;SDS011;2101;48.290;14.382;2022-08-11T14:00:43;12.77;;;0.90;;
4174;SDS011;2101;48.290;14.382;2022-08-11T14:03:11;13.33;;;1.00;;
4174;SDS011;2101;48.290;14.382;2022-08-11T14:05:39;12.60;;;0.80;;
4174;SDS011;2101;48.290;14.382;2022-08-11T14:08:10;12.83;;;0.90;;
4174;SDS011;2101;48.290;14.382;2022-08-11T14:10:37;12.97;;;1.00;;
4174;SDS011;2101;48.290;14.382;2022-08-11T14:13:08;13.77;;;1.10;;
4174;SDS011;2101;48.290;14.382;2022-08-11T14:15:54;13.23;;;1.10;;
4174;SDS011;2101;48.290;14.382;2022-08-11T14:18:27;12.57;;;0.80;;
4174;SDS011;2101;48.290;14.382;2022-08-11T14:20:54;12.90;;;1.00;;
4174;SDS011;2101;48.290;14.382;2022-08-11T14:23:40;16.37;;;1.50;;
4174;SDS011;2101;48.290;14.382;2022-08-11T14:26:06;16.10;;;1.00;;
4174;SDS011;2101;48.290;14.382;2022-08-11T14:31:23;13.20;;;1.10;;
4174;SDS011;2101;48.290;14.382;2022-08-11T14:33:51;14.00;;;1.10;;
4174;SDS011;2101;48.290;14.382;2022-08-11T14:36:18;13.40;;;1.13;;
4174;SDS011;2101;48.290;14.382;2022-08-11T14:38:45;12.60;;;0.90;;
4174;SDS011;2101;48.290;14.382;2022-08-11T14:41:12;13.80;;;1.07;;
4174;SDS011;2101;48.290;14.382;2022-08-11T14:43:57;13.10;;;1.10;;
4174;SDS011;2101;48.290;14.382;2022-08-11T14:46:42;14.90;;;0.97;;
4174;SDS011;2101;48.290;14.382;2022-08-11T14:49:27;12.50;;;0.80;;
4174;SDS011;2101;48.290;14.382;2022-08-11T14:51:54;12.63;;;0.90;;
4174;SDS011;2101;48.290;14.382;2022-08-11T14:54:21;14.80;;;0.90;;
4174;SDS011;2101;48.290;14.382;2022-08-11T14:57:07;13.50;;;1.10;;
4174;SDS011;2101;48.290;14.382;2022-08-11T14:59:34;13.30;;;0.93;;
4174;SDS011;2101;48.290;14.382;2022-08-11T15:02:01;16.10;;;0.90;;
4174;SDS011;2101;48.290;14.382;2022-08-11T15:04:47;13.93;;;1.10;;
4174;SDS011;2101;48.290;14.382;2022-08-11T15:07:13;13.30;;;1.00;;
4174;SDS011;2101;48.290;14.382;2022-08-11T15:09:40;13.73;;;1.20;;
4174;SDS011;2101;48.290;14.382;2022-08-11T15:12:08;13.57;;;1.10;;
4174;SDS011;2101;48.290;14.382;2022-08-11T15:14:41;15.73;;;0.90;;
4174;SDS011;2101;48.290;14.382;2022-08-11T15:17:28;13.30;;;1.00;;
4174;SDS011;2101;48.290;14.382;2022-08-11T15:19:57;13.80;;;1.20;;
4174;SDS011;2101;48.290;14.382;2022-08-11T15:22:42;13.00;;;0.90;;
4174;SDS011;2101;48.290;14.382;2022-08-11T15:25:27;13.70;;;0.90;;
4174;SDS011;2101;48.290;14.382;2022-08-11T15:27:54;13.90;;;1.10;;
4174;SDS011;2101;48.290;14.382;2022-08-11T15:30:39;12.83;;;0.97;;
4174;SDS011;2101;48.290;14.382;2022-08-11T15:33:23;12.73;;;0.90;;
4174;SDS011;2101;48.290;14.382;2022-08-11T15:36:10;13.00;;;0.90;;
4174;SDS011;2101;48.290;14.382;2022-08-11T15:38:58;13.30;;;0.90;;
4174;SDS011;2101;48.290;14.382;2022-08-11T15:41:34;13.00;;;0.93;;
4174;SDS011;2101;48.290;14.382;2022-08-11T15:44:36;13.40;;;1.00;;
4174;SDS011;2101;48.290;14.382;2022-08-11T15:47:25;13.00;;;1.00;;
4174;SDS011;2101;48.290;14.382;2022-08-11T15:49:52;13.30;;;1.23;;
4174;SDS011;2101;48.290;14.382;2022-08-11T15:52:22;13.30;;;1.10;;
4174;SDS011;2101;48.290;14.382;2022-08-11T15:54:50;14.37;;;1.30;;
4174;SDS011;2101;48.290;14.382;2022-08-11T15:57:17;14.43;;;1.10;;
4174;SDS011;2101;48.290;14.382;2022-08-11T16:00:03;13.30;;;1.03;;
4174;SDS011;2101;48.290;14.382;2022-08-11T16:02:48;13.33;;;1.07;;
4174;SDS011;2101;48.290;14.382;2022-08-11T16:05:21;20.13;;;1.47;;
4174;SDS011;2101;48.290;14.382;2022-08-11T16:07:48;13.10;;;1.00;;
4174;SDS011;2101;48.290;14.382;2022-08-11T16:10:17;15.07;;;1.00;;
4174;SDS011;2101;48.290;14.382;2022-08-11T16:12:49;13.10;;;1.00;;
4174;SDS011;2101;48.290;14.382;2022-08-11T16:15:30;12.93;;;0.90;;
4174;SDS011;2101;48.290;14.382;2022-08-11T16:18:18;13.37;;;1.00;;
4174;SDS011;2101;48.290;14.382;2022-08-11T16:20:45;14.07;;;0.90;;
4174;SDS011;2101;48.290;14.382;2022-08-11T16:23:11;13.47;;;0.97;;
4174;SDS011;2101;48.290;14.382;2022-08-11T16:25:39;13.43;;;1.00;;
4174;SDS011;2101;48.290;14.382;2022-08-11T16:28:06;13.03;;;1.10;;
4174;SDS011;2101;48.290;14.382;2022-08-11T16:30:34;17.33;;;1.10;;
4174;SDS011;2101;48.290;14.382;2022-08-11T16:33:00;13.07;;;0.90;;
4174;SDS011;2101;48.290;14.382;2022-08-11T16:35:29;13.93;;;1.00;;
4174;SDS011;2101;48.290;14.382;2022-08-11T16:38:15;15.03;;;1.10;;
4174;SDS011;2101;48.290;14.382;2022-08-11T16:43:34;12.90;;;0.90;;
4174;SDS011;2101;48.290;14.382;2022-08-11T16:46:22;14.50;;;1.10;;
4174;SDS011;2101;48.290;14.382;2022-08-11T16:49:15;16.23;;;1.30;;
4174;SDS011;2101;48.290;14.382;2022-08-11T16:51:42;13.80;;;1.33;;
4174;SDS011;2101;48.290;14.382;2022-08-11T16:54:08;17.90;;;1.20;;
4174;SDS011;2101;48.290;14.382;2022-08-11T16:56:37;14.60;;;1.80;;
4174;SDS011;2101;48.290;14.382;2022-08-11T16:59:16;13.90;;;1.20;;
4174;SDS011;2101;48.290;14.382;2022-08-11T17:01:48;13.93;;;1.00;;
4174;SDS011;2101;48.290;14.382;2022-08-11T17:04:24;12.83;;;0.80;;
4174;SDS011;2101;48.290;14.382;2022-08-11T17:07:11;13.60;;;1.07;;
4174;SDS011;2101;48.290;14.382;2022-08-11T17:09:55;14.10;;;1.10;;
4174;SDS011;2101;48.290;14.382;2022-08-11T17:12:41;13.67;;;0.90;;
4174;SDS011;2101;48.290;14.382;2022-08-11T17:15:43;13.80;;;1.00;;
4174;SDS011;2101;48.290;14.382;2022-08-11T17:18:29;13.70;;;1.03;;
4174;SDS011;2101;48.290;14.382;2022-08-11T17:23:36;14.57;;;1.10;;
4174;SDS011;2101;48.290;14.382;2022-08-11T17:26:21;16.97;;;1.00;;
4174;SDS011;2101;48.290;14.382;2022-08-11T17:28:50;13.47;;;0.83;;
4174;SDS011;2101;48.290;14.382;2022-08-11T17:31:19;19.83;;;1.00;;
4174;SDS011;2101;48.290;14.382;2022-08-11T17:34:05;14.00;;;1.13;;
4174;SDS011;2101;48.290;14.382;2022-08-11T17:36:51;14.23;;;1.30;;
4174;SDS011;2101;48.290;14.382;2022-08-11T17:39:18;14.00;;;0.90;;
4174;SDS011;2101;48.290;14.382;2022-08-11T17:41:44;13.90;;;1.30;;
4174;SDS011;2101;48.290;14.382;2022-08-11T17:44:49;13.57;;;0.93;;
4174;SDS011;2101;48.290;14.382;2022-08-11T17:47:34;14.67;;;1.20;;
4174;SDS011;2101;48.290;14.382;2022-08-11T17:50:19;15.33;;;1.10;;
4174;SDS011;2101;48.290;14.382;2022-08-11T17:52:45;13.70;;;1.00;;
4174;SDS011;2101;48.290;14.382;2022-08-11T17:55:31;13.80;;;1.10;;
4174;SDS011;2101;48.290;14.382;2022-08-11T17:58:17;16.33;;;1.10;;
4174;SDS011;2101;48.290;14.382;2022-08-11T18:01:03;14.70;;;1.23;;
4174;SDS011;2101;48.290;14.382;2022-08-11T18:03:30;17.90;;;1.20;;
4174;SDS011;2101;48.290;14.382;2022-08-11T18:05:57;13.63;;;0.97;;
4174;SDS011;2101;48.290;14.382;2022-08-11T18:08:25;14.07;;;1.00;;
4174;SDS011;2101;48.290;14.382;2022-08-11T18:11:11;16.80;;;1.20;;
4174;SDS011;2101;48.290;14.382;2022-08-11T18:13:56;14.00;;;1.00;;
4174;SDS011;2101;48.290;14.382;2022-08-11T18:16:41;17.50;;;1.27;;
4174;SDS011;2101;48.290;14.382;2022-08-11T18:19:26;13.83;;;1.00;;
4174;SDS011;2101;48.290;14.382;2022-08-11T18:22:12;14.30;;;1.33;;
4174;SDS011;2101;48.290;14.382;2022-08-11T18:25:00;14.00;;;1.00;;
4174;SDS011;2101;48.290;14.382;2022-08-11T18:27:46;14.40;;;1.20;;
4174;SDS011;2101;48.290;14.382;2022-08-11T18:30:33;19.93;;;1.20;;
4174;SDS011;2101;48.290;14.382;2022-08-11T18:33:19;14.40;;;1.07;;
4174;SDS011;2101;48.290;14.382;2022-08-11T18:36:05;14.60;;;1.07;;
4174;SDS011;2101;48.290;14.382;2022-08-11T18:38:54;17.93;;;1.30;;
4174;SDS011;2101;48.290;14.382;2022-08-11T18:41:40;15.73;;;1.10;;
4174;SDS011;2101;48.290;14.382;2022-08-11T18:44:28;14.93;;;0.90;;
4174;SDS011;2101;48.290;14.382;2022-08-11T18:47:13;15.40;;;1.23;;
4174;SDS011;2101;48.290;14.382;2022-08-11T18:49:59;14.50;;;1.10;;
4174;SDS011;2101;48.290;14.382;2022-08-11T18:52:47;14.50;;;1.10;;
4174;SDS011;2101;48.290;14.382;2022-08-11T18:55:32;16.67;;;1.20;;
4174;SDS011;2101;48.290;14.382;2022-08-11T18:58:20;14.23;;;1.20;;
4174;SDS011;2101;48.290;14.382;2022-08-11T19:01:06;14.80;;;1.20;;
4174;SDS011;2101;48.290;14.382;2022-08-11T19:03:52;14.63;;;0.87;;
4174;SDS011;2101;48.290;14.382;2022-08-11T19:06:38;13.77;;;0.90;;
4174;SDS011;2101;48.290;14.382;2022-08-11T19:09:24;14.27;;;1.30;;
4174;SDS011;2101;48.290;14.382;2022-08-11T19:12:10;16.50;;;2.33;;
4174;SDS011;2101;48.290;14.382;2022-08-11T19:14:55;19.63;;;1.33;;
4174;SDS011;2101;48.290;14.382;2022-08-11T19:17:41;15.70;;;1.30;;
4174;SDS011;2101;48.290;14.382;2022-08-11T19:20:27;14.67;;;1.10;;
4174;SDS011;2101;48.290;14.382;2022-08-11T19:23:14;14.47;;;1.30;;
4174;SDS011;2101;48.290;14.382;2022-08-11T19:25:59;14.53;;;1.27;;